Time;durP1;ratioP1;P1;durP2;ratioP2;P2;SDS_P1;SDS_P2;PMS_P1;PMS_P2;Temp;Humidity;BMP_temperature;BMP_pressure;BME280_temperature;BME280_humidity;BME280_pressure;Samples;Min_cycle;Max_cycle;Signal;HPM_P1;HPM_P2
2023/01/22 00:01:03;;;;;;;6.47;3.88;;;;;;;18.66;44.66;100805.19;5033952;28;20041;-58
2023/01/22 00:03:30;;;;;;;6.20;4.20;;;;;;;18.67;44.79;100809.59;5047618;28;20057;-59
2023/01/22 00:05:58;;;;;;;5.88;4.40;;;;;;;18.67;43.69;100814.94;5053593;28;20382;-58
2023/01/22 00:08:25;;;;;;;8.50;4.82;;;;;;;18.68;45.24;100816.66;5054187;28;20056;-48
2023/01/22 00:10:54;;;;;;;6.50;3.95;;;;;;;18.67;44.81;100817.63;5053855;28;20041;-49
2023/01/22 00:13:23;;;;;;;5.53;3.53;;;;;;;18.67;44.42;100833.72;5053773;28;20490;-47
2023/01/22 00:15:51;;;;;;;5.45;3.90;;;;;;;18.67;45.22;100831.03;5053843;28;20056;-46
2023/01/22 00:18:19;;;;;;;4.72;4.05;;;;;;;18.66;44.94;100839.22;5052918;28;20510;-58
2023/01/22 00:20:51;;;;;;;6.28;3.85;;;;;;;18.65;44.81;100833.00;5053792;28;20045;-58
2023/01/22 00:23:19;;;;;;;6.13;3.60;;;;;;;18.65;45.16;100827.63;5053779;28;20056;-58
2023/01/22 00:25:46;;;;;;;7.55;4.15;;;;;;;18.64;44.90;100833.16;5053916;28;20387;-58
2023/01/22 00:28:17;;;;;;;7.28;3.88;;;;;;;18.63;44.93;100834.09;5053751;28;20506;-47
2023/01/22 00:30:45;;;;;;;4.93;3.33;;;;;;;18.63;44.64;100842.16;5053491;28;20471;-47
2023/01/22 00:33:12;;;;;;;8.45;3.97;;;;;;;18.61;44.85;100839.59;5053680;28;20047;-47
2023/01/22 00:35:39;;;;;;;5.25;3.65;;;;;;;18.62;44.80;100846.66;5053764;28;20057;-48
2023/01/22 00:38:07;;;;;;;4.60;3.70;;;;;;;18.61;44.68;100847.66;5053714;28;20406;-57
2023/01/22 00:40:34;;;;;;;5.97;3.78;;;;;;;18.60;44.78;100843.28;5053496;28;20053;-58
2023/01/22 00:43:01;;;;;;;5.95;3.42;;;;;;;18.61;44.73;100849.47;5053367;28;20041;-58
2023/01/22 00:45:29;;;;;;;5.70;3.95;;;;;;;18.59;44.77;100859.47;5053600;28;20052;-58
2023/01/22 00:47:56;;;;;;;4.97;3.45;;;;;;;18.59;44.39;100863.00;5053585;28;20045;-47
2023/01/22 00:50:24;;;;;;;5.43;3.20;;;;;;;18.58;44.48;100857.75;5053521;28;20049;-58
2023/01/22 00:52:51;;;;;;;5.72;3.65;;;;;;;18.58;44.81;100860.44;5053475;28;20471;-58
2023/01/22 00:55:19;;;;;;;5.55;3.55;;;;;;;18.57;44.77;100862.28;5053461;28;20430;-58
2023/01/22 00:57:48;;;;;;;5.60;3.70;;;;;;;18.58;44.80;100876.53;5053367;28;20053;-58
2023/01/22 01:00:18;;;;;;;7.07;3.53;;;;;;;18.57;44.52;100877.53;5053016;28;20052;-49
2023/01/22 01:05:33;;;;;;;6.90;4.13;;;;;;;18.55;44.86;100891.03;5056139;28;20057;-50
2023/01/22 01:08:00;;;;;;;5.95;3.53;;;;;;;18.56;44.84;100895.44;5057767;28;20067;-48
2023/01/22 01:10:28;;;;;;;6.43;3.85;;;;;;;18.54;44.67;100898.22;5057279;28;20065;-59
2023/01/22 01:12:55;;;;;;;4.80;3.30;;;;;;;18.54;44.63;100889.34;5057019;28;20052;-59
2023/01/22 01:15:23;;;;;;;5.32;3.17;;;;;;;18.55;44.56;100899.06;5057037;28;20060;-58
2023/01/22 01:17:50;;;;;;;5.13;3.60;;;;;;;18.54;44.46;100898.22;5056963;28;20406;-47
2023/01/22 01:20:19;;;;;;;7.28;3.85;;;;;;;18.53;44.63;100901.03;5055944;28;20060;-49
2023/01/22 01:22:47;;;;;;;4.65;3.20;;;;;;;18.53;44.41;100895.69;5057189;28;20518;-47
2023/01/22 01:25:14;;;;;;;5.38;3.65;;;;;;;18.53;44.35;100891.16;5056591;28;20041;-47
2023/01/22 01:27:42;;;;;;;6.35;3.95;;;;;;;18.53;44.13;100901.03;5055851;28;20053;-47
2023/01/22 01:30:10;;;;;;;7.07;3.92;;;;;;;18.52;44.08;100894.84;5055979;28;20053;-48
2023/01/22 01:32:37;;;;;;;5.25;2.90;;;;;;;18.52;43.96;100894.84;5056953;28;20048;-47
2023/01/22 01:35:04;;;;;;;4.85;3.55;;;;;;;18.52;44.02;100896.66;5055214;28;20049;-50
2023/01/22 01:37:32;;;;;;;5.38;3.65;;;;;;;18.51;44.17;100893.13;5056455;28;20045;-51
2023/01/22 01:39:59;;;;;;;7.07;3.88;;;;;;;18.51;44.11;100895.81;5056667;28;20053;-58
2023/01/22 01:42:31;;;;;;;4.65;3.55;;;;;;;18.51;43.97;100901.19;5056745;28;20051;-58
2023/01/22 01:45:17;;;;;;;5.55;3.72;;;;;;;18.51;44.00;100906.53;5055020;28;20049;-58
2023/01/22 01:47:47;;;;;;;4.78;3.45;;;;;;;18.51;44.00;100897.63;5056664;28;20045;-48
2023/01/22 01:50:19;;;;;;;6.97;3.40;;;;;;;18.50;43.92;100896.78;5056644;28;20467;-48
2023/01/22 01:52:47;;;;;;;5.20;3.22;;;;;;;18.50;43.83;100904.81;5055998;28;20052;-50
2023/01/22 01:55:20;;;;;;;7.55;3.88;;;;;;;18.50;44.01;100904.81;5054989;28;20052;-49
2023/01/22 01:57:48;;;;;;;6.60;3.55;;;;;;;18.50;43.81;100904.81;5055459;28;20060;-58
2023/01/22 02:00:17;;;;;;;4.18;3.40;;;;;;;18.50;43.92;100910.19;5056477;28;20511;-58
2023/01/22 02:02:45;;;;;;;5.38;3.30;;;;;;;18.50;43.80;100912.00;5054783;28;20049;-58
2023/01/22 02:05:13;;;;;;;6.53;3.15;;;;;;;18.50;43.91;100912.84;5056253;28;20049;-58
2023/01/22 02:07:41;;;;;;;4.88;3.15;;;;;;;18.49;43.95;100915.69;5054416;28;20063;-58
2023/01/22 02:10:10;;;;;;;5.25;4.00;;;;;;;18.49;43.75;100911.16;5056352;28;20055;-49
2023/01/22 02:12:37;;;;;;;4.90;3.25;;;;;;;18.49;43.88;100913.00;5055740;28;20051;-50
2023/01/22 02:15:06;;;;;;;4.78;3.53;;;;;;;18.49;43.76;100919.19;5054531;28;20052;-47
2023/01/22 02:17:34;;;;;;;4.65;3.15;;;;;;;18.48;43.98;100922.88;5055951;28;20056;-48
2023/01/22 02:20:01;;;;;;;5.75;3.25;;;;;;;18.48;43.96;100914.81;5055263;28;20053;-59
2023/01/22 02:22:32;;;;;;;4.15;3.30;;;;;;;18.47;44.16;100915.81;5054500;28;20060;-58
2023/01/22 02:25:00;;;;;;;4.38;3.30;;;;;;;18.47;44.11;100914.94;5055930;28;20045;-58
2023/01/22 02:27:27;;;;;;;4.47;3.28;;;;;;;18.46;44.01;100915.91;5054603;28;20056;-58
2023/01/22 02:29:55;;;;;;;4.35;3.05;;;;;;;18.47;44.11;100917.59;5055095;28;20064;-47
2023/01/22 02:32:22;;;;;;;5.13;3.60;;;;;;;18.47;44.07;100915.81;5055758;28;20052;-50
2023/01/22 02:34:51;;;;;;;4.65;3.38;;;;;;;18.46;43.99;100918.59;5054380;28;20049;-48
2023/01/22 02:37:18;;;;;;;4.43;2.85;;;;;;;18.45;44.00;100912.38;5055013;28;20388;-51
2023/01/22 02:39:47;;;;;;;4.20;3.22;;;;;;;18.47;43.99;100914.94;5054466;28;20064;-49
2023/01/22 02:42:14;;;;;;;5.55;3.20;;;;;;;18.46;43.96;100910.56;5055584;28;20387;-49
2023/01/22 02:44:42;;;;;;;4.07;3.08;;;;;;;18.45;43.86;100912.38;5054225;28;20052;-48
2023/01/22 02:47:11;;;;;;;4.38;3.15;;;;;;;18.45;43.68;100906.19;5054812;28;20048;-48
2023/01/22 02:49:38;;;;;;;4.65;3.17;;;;;;;18.45;43.67;100912.38;5054647;28;20049;-58
2023/01/22 02:52:06;;;;;;;5.18;3.10;;;;;;;18.45;43.73;100915.06;5054323;28;20052;-58
2023/01/22 02:54:34;;;;;;;4.63;3.28;;;;;;;18.44;43.66;100918.72;5054492;28;20049;-58
2023/01/22 02:57:01;;;;;;;3.92;3.25;;;;;;;18.46;43.67;100918.59;5054242;28;20056;-58
2023/01/22 02:59:28;;;;;;;4.43;2.97;;;;;;;18.45;43.60;100919.59;5055559;28;20056;-58
2023/01/22 03:01:56;;;;;;;4.90;3.03;;;;;;;18.46;43.73;100932.00;5054185;28;20048;-58
2023/01/22 03:04:26;;;;;;;4.43;2.97;;;;;;;18.45;43.71;100933.84;5054180;28;20052;-58
2023/01/22 03:06:53;;;;;;;5.43;3.38;;;;;;;18.45;43.70;100928.47;5055068;28;20059;-58
2023/01/22 03:09:22;;;;;;;4.65;3.20;;;;;;;18.45;43.62;100941.88;5053839;28;20390;-47
2023/01/22 03:11:50;;;;;;;3.97;3.03;;;;;;;18.45;43.57;100949.91;5053555;28;20068;-49
2023/01/22 03:22:46;;;;;;;3.67;2.85;;;;;;;18.44;43.56;100950.91;5053742;28;20049;-49
2023/01/22 03:25:14;;;;;;;3.75;2.92;;;;;;;18.44;43.53;100945.53;5052911;28;20041;-48
2023/01/22 03:28:07;;;;;;;4.47;2.95;;;;;;;18.45;44.04;100941.03;5053270;28;20071;-49
2023/01/22 03:30:32;;;;;;;4.40;2.85;;;;;;;18.44;43.88;100944.69;5053294;28;20053;-58
2023/01/22 03:32:59;;;;;;;3.97;3.00;;;;;;;18.44;43.78;100936.66;5053737;28;20499;-58
2023/01/22 03:35:27;;;;;;;4.50;3.13;;;;;;;18.46;43.69;100934.69;5053411;28;20048;-59
2023/01/22 03:38:20;;;;;;;3.30;2.33;;;;;;;18.45;43.88;100943.72;5054415;28;20055;-58
2023/01/22 03:40:48;;;;;;;3.60;2.55;;;;;;;18.44;43.83;100942.84;5052959;28;20422;-58
2023/01/22 03:43:15;;;;;;;4.80;3.47;;;;;;;18.45;43.82;100946.38;5052856;28;20056;-58
2023/01/22 03:45:42;;;;;;;3.45;2.47;;;;;;;18.44;44.07;100950.91;5052912;28;20057;-60
2023/01/22 03:48:13;;;;;;;4.40;2.60;;;;;;;18.45;43.87;100954.44;5052869;28;20072;-49
2023/01/22 03:50:41;;;;;;;5.20;2.60;;;;;;;18.44;43.99;100960.78;5053757;28;20403;-47
2023/01/22 03:53:08;;;;;;;3.97;2.55;;;;;;;18.45;44.16;100962.47;5054209;28;20052;-48
2023/01/22 03:55:35;;;;;;;4.18;2.95;;;;;;;18.44;43.98;100968.81;5052782;28;20056;-49
2023/01/22 03:58:03;;;;;;;4.43;2.63;;;;;;;18.44;44.05;100971.50;5054236;28;20045;-58
2023/01/22 04:00:30;;;;;;;4.68;2.88;;;;;;;18.43;44.02;100970.66;5053599;28;20399;-48
2023/01/22 04:02:58;;;;;;;4.38;2.50;;;;;;;18.42;43.94;100971.59;5052896;28;20048;-51
2023/01/22 04:05:31;;;;;;;3.83;2.65;;;;;;;18.42;44.01;100974.28;5052822;28;20510;-49
2023/01/22 04:07:58;;;;;;;4.47;2.65;;;;;;;18.41;43.95;100972.56;5054177;28;20041;-48
2023/01/22 04:10:29;;;;;;;4.43;2.85;;;;;;;18.42;43.95;100974.28;5052921;28;20053;-48
2023/01/22 04:12:58;;;;;;;6.22;2.30;;;;;;;18.42;43.95;100978.78;5052865;28;20055;-49
2023/01/22 04:15:26;;;;;;;3.47;2.50;;;;;;;18.43;44.02;100983.16;5052517;28;20049;-50
2023/01/22 04:17:55;;;;;;;5.47;2.65;;;;;;;18.44;44.14;100979.53;5052658;28;20060;-59
2023/01/22 04:20:38;;;;;;;4.35;2.75;;;;;;;18.44;43.91;100983.06;5052791;28;20435;-59
2023/01/22 04:23:37;;;;;;;3.58;2.38;;;;;;;18.45;44.09;100978.56;5053269;28;20064;-59
2023/01/22 04:26:07;;;;;;;4.20;2.42;;;;;;;18.45;43.90;100981.22;5052132;28;20049;-59
2023/01/22 04:28:34;;;;;;;8.70;3.13;;;;;;;18.44;43.77;100977.69;5053043;28;20056;-59
2023/01/22 04:31:03;;;;;;;4.28;2.10;;;;;;;18.46;44.27;100985.63;5052730;28;20049;-59
2023/01/22 04:33:47;;;;;;;5.22;2.35;;;;;;;18.45;44.19;100992.81;5052337;28;20072;-59
2023/01/22 04:36:19;;;;;;;3.73;2.20;;;;;;;18.44;44.19;100983.06;5036884;28;20060;-59
2023/01/22 04:38:47;;;;;;;8.50;2.20;;;;;;;18.45;44.21;100983.91;5052949;28;20053;-59
2023/01/22 04:41:14;;;;;;;3.90;1.80;;;;;;;18.45;44.11;100986.59;5053638;28;20057;-59
2023/01/22 04:43:42;;;;;;;2.80;1.83;;;;;;;18.44;43.85;100988.44;5052385;28;20053;-59
2023/01/22 04:46:10;;;;;;;4.80;3.00;;;;;;;18.43;43.91;100985.84;5052279;28;20059;-59
2023/01/22 04:48:37;;;;;;;3.58;2.10;;;;;;;18.42;42.93;100978.78;5052039;28;20044;-49
2023/01/22 04:51:05;;;;;;;4.00;1.95;;;;;;;18.40;43.39;100964.69;5053519;28;20056;-49
2023/01/22 04:53:32;;;;;;;2.83;2.05;;;;;;;18.39;43.83;100961.16;5052197;28;20057;-48
2023/01/22 04:56:00;;;;;;;3.90;2.20;;;;;;;18.40;43.90;100962.00;5053439;28;20108;-49
2023/01/22 04:58:27;;;;;;;3.28;2.08;;;;;;;18.40;43.79;100956.63;5052747;28;20053;-50
2023/01/22 05:00:57;;;;;;;3.45;1.92;;;;;;;18.40;43.88;100970.03;5052408;28;20499;-49
2023/01/22 05:03:26;;;;;;;4.18;1.85;;;;;;;18.40;43.84;100970.03;5053516;28;20056;-49
2023/01/22 05:05:53;;;;;;;3.35;1.77;;;;;;;18.39;43.93;100968.31;5052298;28;20052;-48
2023/01/22 05:08:21;;;;;;;2.88;1.60;;;;;;;18.38;43.82;100978.19;5052124;28;20050;-58
2023/01/22 05:10:50;;;;;;;3.28;2.10;;;;;;;18.39;44.03;100973.66;5051912;28;20060;-59
2023/01/22 05:13:25;;;;;;;2.15;1.40;;;;;;;18.39;43.94;100973.66;5051920;28;20053;-59
2023/01/22 05:15:53;;;;;;;3.10;2.28;;;;;;;18.38;43.84;100985.38;5053145;28;20040;-59
2023/01/22 05:18:22;;;;;;;2.60;1.55;;;;;;;18.39;43.85;100984.38;5051670;28;20052;-51
2023/01/22 05:20:51;;;;;;;2.95;1.70;;;;;;;18.38;43.78;100991.59;5052018;28;20049;-49
2023/01/22 05:23:21;;;;;;;2.40;1.60;;;;;;;18.38;43.79;100993.41;5051535;28;20056;-49
2023/01/22 05:25:49;;;;;;;3.67;1.75;;;;;;;18.37;43.49;100995.25;5051537;28;20048;-48
2023/01/22 05:28:26;;;;;;;3.72;1.85;;;;;;;18.37;43.67;100991.72;5052326;28;20049;-49
2023/01/22 05:31:06;;;;;;;2.83;1.42;;;;;;;18.37;43.36;100991.72;5051950;28;20053;-48
2023/01/22 05:33:43;;;;;;;2.53;1.50;;;;;;;18.37;43.63;100997.91;5052174;28;20049;-49
2023/01/22 05:36:12;;;;;;;3.45;1.58;;;;;;;18.36;43.64;100998.06;5052101;28;20048;-49
2023/01/22 05:38:39;;;;;;;2.45;1.50;;;;;;;18.37;43.67;100991.72;5051954;28;20057;-58
2023/01/22 05:41:08;;;;;;;3.03;1.60;;;;;;;18.36;43.84;101000.75;5051378;28;20495;-59
2023/01/22 05:43:37;;;;;;;2.83;1.67;;;;;;;18.36;43.10;101011.47;5051971;28;20049;-58
2023/01/22 05:46:08;;;;;;;2.00;1.10;;;;;;;18.34;41.50;100991.94;5051466;28;20375;-57
2023/01/22 05:48:49;;;;;;;2.83;1.52;;;;;;;18.33;41.38;100992.94;5055126;28;20059;-47
2023/01/22 05:51:23;;;;;;;5.50;1.35;;;;;;;18.32;41.75;100994.75;5055410;28;20049;-52
2023/01/22 05:53:52;;;;;;;2.45;1.40;;;;;;;18.32;41.33;101000.13;5056251;28;20041;-48
2023/01/22 05:56:19;;;;;;;2.17;1.20;;;;;;;18.32;42.08;101001.94;5055194;28;20068;-49
2023/01/22 05:58:47;;;;;;;3.78;1.58;;;;;;;18.31;42.75;101002.91;5055538;28;20060;-48
2023/01/22 06:01:14;;;;;;;3.33;1.60;;;;;;;18.31;42.24;101008.25;5056297;28;20045;-48
2023/01/22 06:03:46;;;;;;;2.50;1.45;;;;;;;18.31;42.39;100997.53;5055114;28;20056;-48
2023/01/22 06:06:18;;;;;;;3.58;1.58;;;;;;;18.30;42.88;101004.72;5054843;28;20060;-50
2023/01/22 06:08:47;;;;;;;2.80;1.25;;;;;;;18.31;42.78;101008.25;5054833;28;20053;-49
2023/01/22 06:11:15;;;;;;;2.67;1.40;;;;;;;18.32;43.34;101007.31;5054912;28;20053;-51
2023/01/22 06:13:46;;;;;;;2.90;1.00;;;;;;;18.31;42.70;100994.88;5056163;28;20391;-47
2023/01/22 06:16:16;;;;;;;2.30;1.00;;;;;;;18.31;42.06;101002.91;5054638;28;20048;-49
2023/01/22 06:19:02;;;;;;;3.10;1.30;;;;;;;18.29;41.46;100986.97;5063010;28;20419;-49
2023/01/22 06:21:36;;;;;;;2.03;1.13;;;;;;;18.30;42.13;100988.66;5054729;28;20052;-51
2023/01/22 06:24:04;;;;;;;3.53;1.20;;;;;;;18.29;41.97;100978.91;5055122;28;20526;-47
2023/01/22 06:26:32;;;;;;;2.33;1.30;;;;;;;18.27;42.21;100987.09;5054742;28;20057;-47
2023/01/22 06:29:00;;;;;;;2.03;0.90;;;;;;;18.28;41.16;100982.56;5054832;28;20060;-48
2023/01/22 06:31:29;;;;;;;3.25;1.15;;;;;;;18.27;41.30;100980.84;5054721;28;20044;-47
2023/01/22 06:33:57;;;;;;;2.40;1.20;;;;;;;18.26;41.36;100980.00;5054268;28;20056;-47
2023/01/22 06:36:24;;;;;;;2.20;0.95;;;;;;;18.26;41.63;100985.34;5054146;28;20049;-47
2023/01/22 06:38:53;;;;;;;2.65;1.10;;;;;;;18.25;42.09;100978.31;5054274;28;20049;-49
2023/01/22 06:41:34;;;;;;;3.42;1.05;;;;;;;18.25;41.29;100983.66;5054320;28;20415;-47
2023/01/22 06:44:04;;;;;;;1.83;1.00;;;;;;;18.25;40.94;100983.66;5054427;28;20053;-48
2023/01/22 06:46:31;;;;;;;2.42;1.58;;;;;;;18.25;42.32;100975.63;5054469;28;20048;-49
2023/01/22 06:49:03;;;;;;;1.60;1.00;;;;;;;18.25;40.94;100983.66;5054446;28;20049;-58
2023/01/22 06:51:31;;;;;;;1.40;0.80;;;;;;;18.24;40.36;100979.28;5055468;28;20045;-58
2023/01/22 06:53:58;;;;;;;2.38;0.90;;;;;;;18.24;40.18;100981.13;5055352;28;20049;-58
2023/01/22 06:56:27;;;;;;;1.17;0.65;;;;;;;18.23;39.71;100979.38;5054148;28;20052;-58
2023/01/22 06:58:56;;;;;;;1.80;0.80;;;;;;;18.22;39.33;100989.25;5053929;28;20056;-47
2023/01/22 07:01:24;;;;;;;3.50;0.82;;;;;;;18.23;41.06;100984.75;5055492;28;20052;-47
2023/01/22 07:03:52;;;;;;;1.90;0.90;;;;;;;18.23;41.82;100984.75;5055178;28;20398;-48
2023/01/22 07:06:19;;;;;;;2.38;1.10;;;;;;;18.23;42.47;100991.00;5055036;28;20053;-48
2023/01/22 07:08:46;;;;;;;2.20;0.80;;;;;;;18.24;41.78;100987.31;5055009;28;20049;-48
2023/01/22 07:11:15;;;;;;;1.92;0.80;;;;;;;18.26;42.29;101008.63;5054723;28;20407;-48
2023/01/22 07:13:42;;;;;;;1.90;0.90;;;;;;;18.25;42.48;101007.78;5054769;28;20056;-49
2023/01/22 07:16:10;;;;;;;3.03;0.98;;;;;;;18.26;42.34;101017.53;5054959;28;20049;-47
2023/01/22 07:18:37;;;;;;;2.13;1.00;;;;;;;18.25;42.45;101021.19;5055178;28;20082;-49
2023/01/22 07:21:05;;;;;;;1.80;0.90;;;;;;;18.27;42.49;101021.03;5054763;28;20041;-48
2023/01/22 07:23:32;;;;;;;2.38;0.80;;;;;;;18.28;42.57;101025.47;5054528;28;20045;-48
2023/01/22 07:25:59;;;;;;;2.50;0.75;;;;;;;18.28;42.61;101025.47;5054636;28;20467;-47
2023/01/22 07:28:27;;;;;;;3.38;0.80;;;;;;;18.27;42.05;101019.25;5054832;28;20356;-58
2023/01/22 07:30:55;;;;;;;2.17;0.93;;;;;;;18.27;42.21;101034.44;5054524;28;20048;-58
2023/01/22 07:33:23;;;;;;;2.05;0.90;;;;;;;18.26;42.31;101025.56;5054778;28;20049;-58
2023/01/22 07:35:57;;;;;;;1.98;0.70;;;;;;;18.25;41.40;101026.53;5054568;28;20052;-58
2023/01/22 07:38:27;;;;;;;1.65;0.80;;;;;;;18.25;42.03;101029.22;5054768;28;20052;-48
2023/01/22 07:41:05;;;;;;;1.88;0.90;;;;;;;18.25;41.91;101037.25;5054236;28;20510;-47
2023/01/22 07:43:52;;;;;;;1.40;0.80;;;;;;;18.25;41.63;101034.59;5054324;28;20044;-47
2023/01/22 07:46:19;;;;;;;1.40;0.60;;;;;;;18.25;40.39;101034.59;5054279;28;20045;-50
2023/01/22 07:48:46;;;;;;;3.03;0.88;;;;;;;18.24;39.42;101040.91;5054527;28;20055;-48
2023/01/22 07:51:14;;;;;;;1.40;0.75;;;;;;;18.22;39.15;101045.53;5053970;28;20049;-48
2023/01/22 07:53:41;;;;;;;3.67;1.10;;;;;;;18.20;39.00;101044.81;5053933;28;20045;-48
2023/01/22 07:56:09;;;;;;;1.70;0.60;;;;;;;18.19;38.63;101043.13;5054083;28;20053;-47
2023/01/22 07:58:36;;;;;;;2.20;0.80;;;;;;;18.18;38.13;101041.38;5054211;28;20052;-58
2023/01/22 08:01:07;;;;;;;3.28;0.93;;;;;;;18.15;38.17;101052.38;5053792;28;20059;-58
2023/01/22 08:03:36;;;;;;;2.85;0.90;;;;;;;18.15;38.35;101047.00;5053943;28;20040;-51
2023/01/22 08:06:14;;;;;;;1.75;0.70;;;;;;;18.16;38.94;101058.56;5053786;28;20056;-50
2023/01/22 08:08:41;;;;;;;1.23;0.70;;;;;;;18.16;38.57;101062.09;5054219;28;20096;-47
2023/01/22 08:11:08;;;;;;;4.07;0.88;;;;;;;18.15;38.97;101065.75;5053331;28;20064;-48
2023/01/22 08:13:36;;;;;;;1.77;1.00;;;;;;;18.14;38.63;101069.38;5053800;28;20045;-49
2023/01/22 08:16:03;;;;;;;2.25;0.85;;;;;;;18.14;38.70;101072.06;5053770;28;20048;-50
2023/01/22 08:18:31;;;;;;;2.28;0.90;;;;;;;18.14;38.64;101073.91;5053870;28;20047;-47
2023/01/22 08:21:00;;;;;;;1.95;1.05;;;;;;;18.14;38.71;101072.06;5053381;28;20060;-48
2023/01/22 08:23:27;;;;;;;2.10;0.90;;;;;;;18.14;38.64;101084.63;5053595;28;20391;-50
2023/01/22 08:25:59;;;;;;;1.60;0.77;;;;;;;18.13;38.62;101075.72;5053462;28;20056;-49
2023/01/22 08:28:26;;;;;;;2.55;1.17;;;;;;;18.13;39.07;101089.13;5053825;28;20048;-48
2023/01/22 08:30:59;;;;;;;2.47;0.70;;;;;;;18.14;38.99;101096.19;5053501;28;20471;-49
2023/01/22 08:33:27;;;;;;;2.60;0.93;;;;;;;18.15;39.12;101100.59;5053584;28;20490;-48
2023/01/22 08:35:55;;;;;;;2.83;0.88;;;;;;;18.15;39.29;101092.56;5053501;28;20056;-50
2023/01/22 08:38:22;;;;;;;2.60;0.80;;;;;;;18.14;39.10;101101.53;5053708;28;20052;-51
2023/01/22 08:40:51;;;;;;;1.50;0.70;;;;;;;18.14;38.99;101109.56;5053119;28;20059;-50
2023/01/22 08:43:19;;;;;;;4.10;0.93;;;;;;;18.14;39.34;101111.41;5053302;28;20057;-50
2023/01/22 08:45:48;;;;;;;2.60;1.10;;;;;;;18.14;39.71;101117.63;5053523;28;20505;-52
2023/01/22 08:48:16;;;;;;;1.75;0.70;;;;;;;18.14;39.55;101127.47;5053642;28;20068;-50
2023/01/22 08:50:44;;;;;;;2.70;1.00;;;;;;;18.15;39.20;101126.50;5053434;28;20045;-48
2023/01/22 08:53:11;;;;;;;2.63;1.08;;;;;;;18.14;40.06;101127.47;5053437;28;20052;-49
2023/01/22 08:55:38;;;;;;;3.53;1.10;;;;;;;18.13;39.36;101123.97;5052889;28;20056;-52
2023/01/22 08:58:06;;;;;;;2.17;1.10;;;;;;;18.12;39.20;101135.66;5053212;28;20048;-52
2023/01/22 09:00:34;;;;;;;2.95;1.10;;;;;;;18.13;39.61;101141.84;5053192;28;20059;-57
2023/01/22 09:03:01;;;;;;;2.72;1.17;;;;;;;18.14;40.27;101148.91;5053185;28;20072;-57
2023/01/22 09:05:28;;;;;;;2.03;0.95;;;;;;;18.12;39.71;101146.38;5053282;28;20045;-58
2023/01/22 09:07:55;;;;;;;4.40;1.05;;;;;;;18.13;40.75;101156.09;5053245;28;20037;-57
2023/01/22 09:10:26;;;;;;;2.08;0.85;;;;;;;18.13;40.55;101156.09;5053051;28;20410;-48
2023/01/22 09:12:53;;;;;;;2.92;1.02;;;;;;;18.14;41.26;101156.97;5051781;28;20052;-51
2023/01/22 09:15:20;;;;;;;1.55;0.63;;;;;;;18.15;41.36;101169.38;5053136;28;20049;-58
2023/01/22 09:17:48;;;;;;;2.13;0.80;;;;;;;18.15;41.56;101172.94;5053212;28;20063;-59
2023/01/22 09:20:15;;;;;;;2.22;0.90;;;;;;;18.16;41.61;101182.69;5053385;28;20502;-59
2023/01/22 09:22:44;;;;;;;3.08;1.05;;;;;;;18.15;41.35;101175.63;5054661;28;20048;-59
2023/01/22 09:25:12;;;;;;;1.48;0.70;;;;;;;18.16;41.45;101180.00;5055531;28;20048;-59
2023/01/22 09:27:39;;;;;;;1.95;0.82;;;;;;;18.17;41.45;101195.09;5056596;28;20049;-61
2023/01/22 09:30:08;;;;;;;6.88;1.20;;;;;;;18.18;42.16;101186.09;5056483;28;20053;-61
2023/01/22 09:32:36;;;;;;;3.45;0.88;;;;;;;18.19;41.44;101192.28;5056559;28;20051;-60
2023/01/22 09:35:07;;;;;;;2.60;1.25;;;;;;;18.21;42.41;101199.25;5056758;28;20049;-48
2023/01/22 09:37:34;;;;;;;5.60;1.30;;;;;;;18.18;41.09;101191.44;5056605;28;20052;-49
2023/01/22 09:40:01;;;;;;;2.63;1.20;;;;;;;18.17;41.67;101195.09;5056447;28;20399;-47
2023/01/22 09:42:34;;;;;;;3.67;1.27;;;;;;;18.17;42.50;101197.78;5056460;28;20052;-49
2023/01/22 09:45:08;;;;;;;2.20;1.08;;;;;;;18.17;42.45;101195.09;5056503;28;20048;-47
2023/01/22 09:47:48;;;;;;;2.38;0.93;;;;;;;18.18;42.56;101187.91;5056391;28;20052;-48
2023/01/22 09:50:32;;;;;;;3.25;1.20;;;;;;;18.19;42.54;101189.63;5056682;28;20479;-48
2023/01/22 09:53:04;;;;;;;2.53;0.80;;;;;;;18.19;42.43;101189.63;5056334;28;20045;-48
2023/01/22 09:55:39;;;;;;;3.40;1.40;;;;;;;18.18;40.77;101190.59;5056349;28;20052;-50
2023/01/22 09:58:13;;;;;;;3.72;1.13;;;;;;;18.16;41.59;101193.41;5056853;28;20056;-48
2023/01/22 10:00:46;;;;;;;3.33;1.50;;;;;;;18.18;42.43;101199.47;5056230;28;20053;-60
2023/01/22 10:03:23;;;;;;;3.78;1.02;;;;;;;18.17;42.65;101192.41;5056261;28;20052;-60
2023/01/22 10:06:00;;;;;;;2.90;1.23;;;;;;;18.19;42.66;101186.94;5056178;28;20055;-60
2023/01/22 10:08:32;;;;;;;7.28;1.42;;;;;;;18.20;42.86;101196.72;5056292;28;20048;-49
2023/01/22 10:11:02;;;;;;;8.97;1.50;;;;;;;18.20;42.71;101196.72;5056085;28;20051;-48
2023/01/22 10:13:35;;;;;;;3.95;1.10;;;;;;;18.20;42.52;101194.03;5055919;28;20048;-48
2023/01/22 10:16:04;;;;;;;4.35;1.25;;;;;;;18.20;41.80;101199.38;5055638;28;20049;-50
2023/01/22 10:18:54;;;;;;;4.22;1.27;;;;;;;18.19;42.00;101195.84;5055668;28;20403;-49
2023/01/22 10:21:32;;;;;;;3.67;1.27;;;;;;;18.19;42.39;101193.19;5054635;28;20056;-60
2023/01/22 10:23:59;;;;;;;3.47;0.90;;;;;;;18.19;41.19;101200.34;5055901;28;20056;-59
2023/01/22 10:26:47;;;;;;;4.18;1.00;;;;;;;18.17;41.63;101195.09;5055662;28;20048;-60
2023/01/22 10:29:21;;;;;;;4.38;1.40;;;;;;;18.18;42.21;101195.94;5055677;28;20407;-47
2023/01/22 10:31:55;;;;;;;3.60;0.98;;;;;;;18.18;42.02;101206.66;5055525;28;20052;-49
2023/01/22 10:34:35;;;;;;;6.70;1.45;;;;;;;18.19;41.66;101200.34;5034710;28;20049;-49
2023/01/22 10:37:13;;;;;;;5.40;1.25;;;;;;;18.19;41.90;101203.00;5035568;28;20057;-48
2023/01/22 10:39:54;;;;;;;5.88;1.42;;;;;;;18.20;41.92;101202.91;5035579;28;20065;-48
2023/01/22 10:42:24;;;;;;;4.03;1.30;;;;;;;18.21;42.18;101201.94;5052495;28;20505;-49
2023/01/22 10:45:07;;;;;;;3.40;1.23;;;;;;;18.21;41.90;101201.94;5042102;28;20048;-51
2023/01/22 10:47:35;;;;;;;2.05;1.10;;;;;;;18.23;42.21;101193.78;5045274;28;20056;-48
2023/01/22 10:50:11;;;;;;;6.50;1.00;;;;;;;18.23;42.44;101201.81;5040740;28;20422;-52
2023/01/22 10:52:53;;;;;;;4.35;1.27;;;;;;;18.24;42.68;101193.69;5034618;28;20049;-50
2023/01/22 10:55:24;;;;;;;4.50;1.17;;;;;;;18.24;42.59;101193.69;5055124;28;20053;-50
2023/01/22 10:57:57;;;;;;;4.43;1.05;;;;;;;18.26;42.57;101194.41;5054744;28;20055;-51
2023/01/22 11:00:29;;;;;;;5.00;1.27;;;;;;;18.27;42.80;101196.13;5054443;28;20403;-51
2023/01/22 11:03:20;;;;;;;4.82;1.23;;;;;;;18.45;42.73;101193.00;5054650;28;20048;-49
2023/01/22 11:05:53;;;;;;;2.78;0.90;;;;;;;18.52;41.28;101194.25;5054737;28;20049;-45
2023/01/22 11:08:22;;;;;;;;;;;;;;;18.53;41.57;101195.97;5055293;28;20049;-60
2023/01/22 11:10:55;;;;;;;4.35;1.23;;;;;;;18.51;42.28;101195.22;5054927;28;19921;-60
2023/01/22 11:13:41;;;;;;;3.72;1.20;;;;;;;18.50;41.72;101198.88;5054687;28;20072;-59
2023/01/22 11:16:23;;;;;;;3.45;1.23;;;;;;;18.48;41.71;101190.09;5054369;28;20052;-60
2023/01/22 11:18:58;;;;;;;4.88;1.35;;;;;;;18.47;42.13;101196.41;5054188;28;20049;-46
2023/01/22 11:21:26;;;;;;;3.88;1.17;;;;;;;18.45;42.44;101188.50;5054236;28;20045;-48
2023/01/22 11:24:13;;;;;;;2.55;0.73;;;;;;;18.43;42.39;101190.47;5054677;28;20403;-47
2023/01/22 11:26:49;;;;;;;5.07;1.30;;;;;;;18.44;42.11;101191.31;5054048;28;20108;-49
2023/01/22 11:29:44;;;;;;;4.20;1.00;;;;;;;18.42;42.51;101191.41;5053946;28;20064;-59
2023/01/22 11:32:36;;;;;;;2.58;1.40;;;;;;;18.42;42.47;101199.44;5049197;28;20064;-60
2023/01/22 11:35:12;;;;;;;3.95;1.33;;;;;;;18.40;41.80;101197.88;5035821;28;20482;-60
2023/01/22 11:37:45;;;;;;;5.25;1.30;;;;;;;18.37;41.73;101204.31;5033877;28;20484;-60
2023/01/22 11:40:25;;;;;;;4.38;1.15;;;;;;;18.36;42.35;101207.97;5034080;28;20492;-60
2023/01/22 11:43:33;;;;;;;2.90;0.95;;;;;;;18.35;42.48;101219.69;5033888;28;20049;-60
2023/01/22 11:46:45;;;;;;;4.53;1.30;;;;;;;18.34;42.35;101214.41;5033412;28;20050;-61
2023/01/22 11:49:31;;;;;;;2.75;1.00;;;;;;;18.33;42.38;101216.25;5049358;28;20057;-60
2023/01/22 11:52:30;;;;;;;5.35;2.65;;;;;;;18.26;43.07;101210.47;5046934;28;20045;-60